Kerrik, Illinois
Current Conditions -  °F | °C
As of 9:56 AM on Wednesday 26 Nov 2014 (Local Time) from KBMI Reporting Station
Overcast Overcast  
Wind Chill: 16°   Ceiling: 700
Heat Index: 27°   Visibility: 7mi
Dew Point: 24°   Wind: 14mph
Humidity: 88%   Direction: 140°SE
Pressure: 30.1"   Gusts: NA
Location:  40.4766°N, 88.992°W
Report Text: KBMI 261556Z 14012KT 7SM OVC007 M03/M04 A3010 RMK AO2 T10271044 SLP215
Loading
Personal Weather Stations






























Interactive Weather Map New forecast layout! Learn more

10-Day Weather Forecast

Advertisements
Track Severe Weather on mobile